sensor_id;sensor_type;location;lat;lon;timestamp;temperature;humidity
15133;DHT22;7667;51.232;17.110;2023-07-31T00:00:55;15.60;99.90
15133;DHT22;7667;51.232;17.110;2023-07-31T00:03:23;15.50;99.90
15133;DHT22;7667;51.232;17.110;2023-07-31T00:05:51;15.50;99.90
15133;DHT22;7667;51.232;17.110;2023-07-31T00:08:18;15.50;99.90
15133;DHT22;7667;51.232;17.110;2023-07-31T00:10:46;15.50;99.90
15133;DHT22;7667;51.232;17.110;2023-07-31T00:13:13;15.50;99.90
15133;DHT22;7667;51.232;17.110;2023-07-31T00:15:41;15.50;99.90
15133;DHT22;7667;51.232;17.110;2023-07-31T00:18:09;15.50;99.90
15133;DHT22;7667;51.232;17.110;2023-07-31T00:20:36;15.50;99.90
15133;DHT22;7667;51.232;17.110;2023-07-31T00:23:04;15.40;99.90
15133;DHT22;7667;51.232;17.110;2023-07-31T00:25:31;15.40;99.90
15133;DHT22;7667;51.232;17.110;2023-07-31T00:27:59;15.30;99.90
15133;DHT22;7667;51.232;17.110;2023-07-31T00:30:26;15.30;99.90
15133;DHT22;7667;51.232;17.110;2023-07-31T00:32:54;15.30;99.90
15133;DHT22;7667;51.232;17.110;2023-07-31T00:35:22;15.30;99.90
15133;DHT22;7667;51.232;17.110;2023-07-31T00:37:49;15.20;99.90
15133;DHT22;7667;51.232;17.110;2023-07-31T00:40:17;15.20;99.90
15133;DHT22;7667;51.232;17.110;2023-07-31T00:42:44;15.20;99.90
15133;DHT22;7667;51.232;17.110;2023-07-31T00:45:12;15.30;99.90
15133;DHT22;7667;51.232;17.110;2023-07-31T00:47:39;15.20;99.90
15133;DHT22;7667;51.232;17.110;2023-07-31T00:50:08;15.20;99.90
15133;DHT22;7667;51.232;17.110;2023-07-31T00:52:36;15.20;99.90
15133;DHT22;7667;51.232;17.110;2023-07-31T00:55:04;15.10;99.90
15133;DHT22;7667;51.232;17.110;2023-07-31T00:57:33;15.10;99.90
15133;DHT22;7667;51.232;17.110;2023-07-31T01:00:02;15.10;99.90
15133;DHT22;7667;51.232;17.110;2023-07-31T01:02:30;15.10;99.90
15133;DHT22;7667;51.232;17.110;2023-07-31T01:04:58;15.10;99.90
15133;DHT22;7667;51.232;17.110;2023-07-31T01:07:35;15.00;99.90
15133;DHT22;7667;51.232;17.110;2023-07-31T01:10:20;15.10;99.90
15133;DHT22;7667;51.232;17.110;2023-07-31T01:12:51;15.00;99.90
15133;DHT22;7667;51.232;17.110;2023-07-31T01:15:19;15.10;99.90
15133;DHT22;7667;51.232;17.110;2023-07-31T01:17:48;15.10;99.90
15133;DHT22;7667;51.232;17.110;2023-07-31T01:20:21;15.10;99.90
15133;DHT22;7667;51.232;17.110;2023-07-31T01:26:21;15.10;99.90
15133;DHT22;7667;51.232;17.110;2023-07-31T01:31:31;15.10;99.90
15133;DHT22;7667;51.232;17.110;2023-07-31T01:34:01;15.00;99.90
15133;DHT22;7667;51.232;17.110;2023-07-31T01:36:30;15.00;99.90
15133;DHT22;7667;51.232;17.110;2023-07-31T01:38:59;15.10;99.90
15133;DHT22;7667;51.232;17.110;2023-07-31T01:41:28;15.10;99.90
15133;DHT22;7667;51.232;17.110;2023-07-31T01:43:56;15.00;99.90
15133;DHT22;7667;51.232;17.110;2023-07-31T01:46:23;15.10;99.90
15133;DHT22;7667;51.232;17.110;2023-07-31T01:48:51;15.10;99.90
15133;DHT22;7667;51.232;17.110;2023-07-31T01:51:18;15.00;99.90
15133;DHT22;7667;51.232;17.110;2023-07-31T01:53:46;15.00;99.90
15133;DHT22;7667;51.232;17.110;2023-07-31T01:56:13;15.00;99.90
15133;DHT22;7667;51.232;17.110;2023-07-31T01:58:41;15.00;99.90
15133;DHT22;7667;51.232;17.110;2023-07-31T02:01:09;15.00;99.90
15133;DHT22;7667;51.232;17.110;2023-07-31T02:03:36;15.00;99.90
15133;DHT22;7667;51.232;17.110;2023-07-31T02:06:04;15.00;99.90
15133;DHT22;7667;51.232;17.110;2023-07-31T02:08:32;15.00;99.90
15133;DHT22;7667;51.232;17.110;2023-07-31T02:10:59;15.00;99.90
15133;DHT22;7667;51.232;17.110;2023-07-31T02:13:27;15.00;99.90
15133;DHT22;7667;51.232;17.110;2023-07-31T02:15:55;15.00;99.90
15133;DHT22;7667;51.232;17.110;2023-07-31T02:18:22;15.00;99.90
15133;DHT22;7667;51.232;17.110;2023-07-31T02:20:51;15.00;99.90
15133;DHT22;7667;51.232;17.110;2023-07-31T02:23:19;15.00;99.90
15133;DHT22;7667;51.232;17.110;2023-07-31T02:25:47;15.00;99.90
15133;DHT22;7667;51.232;17.110;2023-07-31T02:28:15;15.00;99.90
15133;DHT22;7667;51.232;17.110;2023-07-31T02:30:45;15.00;99.90
15133;DHT22;7667;51.232;17.110;2023-07-31T02:33:14;15.00;99.90
15133;DHT22;7667;51.232;17.110;2023-07-31T02:35:43;15.00;99.90
15133;DHT22;7667;51.232;17.110;2023-07-31T02:38:11;14.90;99.90
15133;DHT22;7667;51.232;17.110;2023-07-31T02:40:40;14.90;99.90
15133;DHT22;7667;51.232;17.110;2023-07-31T02:43:10;14.90;99.90
15133;DHT22;7667;51.232;17.110;2023-07-31T02:45:38;14.80;99.90
15133;DHT22;7667;51.232;17.110;2023-07-31T02:48:06;14.80;99.90
15133;DHT22;7667;51.232;17.110;2023-07-31T02:50:34;14.70;99.90
15133;DHT22;7667;51.232;17.110;2023-07-31T02:53:02;14.70;99.90
15133;DHT22;7667;51.232;17.110;2023-07-31T02:55:29;14.60;99.90
15133;DHT22;7667;51.232;17.110;2023-07-31T02:57:57;14.50;99.90
15133;DHT22;7667;51.232;17.110;2023-07-31T03:00:25;14.50;99.90
15133;DHT22;7667;51.232;17.110;2023-07-31T03:02:52;14.40;99.90
15133;DHT22;7667;51.232;17.110;2023-07-31T03:05:20;14.30;99.90
15133;DHT22;7667;51.232;17.110;2023-07-31T03:07:48;14.20;99.90
15133;DHT22;7667;51.232;17.110;2023-07-31T03:10:15;14.20;99.90
15133;DHT22;7667;51.232;17.110;2023-07-31T03:12:46;14.20;99.90
15133;DHT22;7667;51.232;17.110;2023-07-31T03:15:15;14.20;99.90
15133;DHT22;7667;51.232;17.110;2023-07-31T03:17:43;14.10;99.90
15133;DHT22;7667;51.232;17.110;2023-07-31T03:20:10;14.10;99.90
15133;DHT22;7667;51.232;17.110;2023-07-31T03:22:38;14.10;99.90
15133;DHT22;7667;51.232;17.110;2023-07-31T03:25:06;14.00;99.90
15133;DHT22;7667;51.232;17.110;2023-07-31T03:27:34;14.00;99.90
15133;DHT22;7667;51.232;17.110;2023-07-31T03:30:03;14.00;99.90
15133;DHT22;7667;51.232;17.110;2023-07-31T03:32:31;14.00;99.90
15133;DHT22;7667;51.232;17.110;2023-07-31T03:34:58;14.00;99.90
15133;DHT22;7667;51.232;17.110;2023-07-31T03:37:26;14.00;99.90
15133;DHT22;7667;51.232;17.110;2023-07-31T03:39:53;13.90;99.90
15133;DHT22;7667;51.232;17.110;2023-07-31T03:42:21;13.90;99.90
15133;DHT22;7667;51.232;17.110;2023-07-31T03:44:49;13.90;99.90
15133;DHT22;7667;51.232;17.110;2023-07-31T03:47:16;13.90;99.90
15133;DHT22;7667;51.232;17.110;2023-07-31T03:49:44;13.90;99.90
15133;DHT22;7667;51.232;17.110;2023-07-31T03:52:11;13.90;99.90
15133;DHT22;7667;51.232;17.110;2023-07-31T03:54:39;13.80;99.90
15133;DHT22;7667;51.232;17.110;2023-07-31T03:57:06;13.80;99.90
15133;DHT22;7667;51.232;17.110;2023-07-31T03:59:34;13.80;99.90
15133;DHT22;7667;51.232;17.110;2023-07-31T04:02:01;13.80;99.90
15133;DHT22;7667;51.232;17.110;2023-07-31T04:04:29;13.80;99.90
15133;DHT22;7667;51.232;17.110;2023-07-31T04:07:00;13.80;99.90
15133;DHT22;7667;51.232;17.110;2023-07-31T04:09:27;13.80;99.90
15133;DHT22;7667;51.232;17.110;2023-07-31T04:11:55;13.80;99.90
15133;DHT22;7667;51.232;17.110;2023-07-31T04:14:23;13.80;99.90
15133;DHT22;7667;51.232;17.110;2023-07-31T04:16:50;13.80;99.90
15133;DHT22;7667;51.232;17.110;2023-07-31T04:19:18;13.90;99.90
15133;DHT22;7667;51.232;17.110;2023-07-31T04:21:45;13.90;99.90
15133;DHT22;7667;51.232;17.110;2023-07-31T04:24:13;13.90;99.90
15133;DHT22;7667;51.232;17.110;2023-07-31T04:26:40;13.90;99.90
15133;DHT22;7667;51.232;17.110;2023-07-31T04:29:08;13.90;99.90
15133;DHT22;7667;51.232;17.110;2023-07-31T04:31:36;13.90;99.90
15133;DHT22;7667;51.232;17.110;2023-07-31T04:34:05;13.90;99.90
15133;DHT22;7667;51.232;17.110;2023-07-31T04:36:34;13.90;99.90
15133;DHT22;7667;51.232;17.110;2023-07-31T04:39:02;14.00;99.90
15133;DHT22;7667;51.232;17.110;2023-07-31T04:41:30;14.10;99.90
15133;DHT22;7667;51.232;17.110;2023-07-31T04:43:57;14.20;99.90
15133;DHT22;7667;51.232;17.110;2023-07-31T04:46:25;14.30;99.90
15133;DHT22;7667;51.232;17.110;2023-07-31T04:48:52;14.30;99.90
15133;DHT22;7667;51.232;17.110;2023-07-31T04:51:20;14.40;99.90
15133;DHT22;7667;51.232;17.110;2023-07-31T04:53:48;14.60;99.90
15133;DHT22;7667;51.232;17.110;2023-07-31T04:56:16;14.80;99.90
15133;DHT22;7667;51.232;17.110;2023-07-31T04:58:43;14.90;99.90
15133;DHT22;7667;51.232;17.110;2023-07-31T05:01:11;15.00;99.90
15133;DHT22;7667;51.232;17.110;2023-07-31T05:03:38;15.20;99.90
15133;DHT22;7667;51.232;17.110;2023-07-31T05:06:06;15.20;99.90
15133;DHT22;7667;51.232;17.110;2023-07-31T05:08:34;15.20;99.90
15133;DHT22;7667;51.232;17.110;2023-07-31T05:11:02;15.30;99.90
15133;DHT22;7667;51.232;17.110;2023-07-31T05:13:30;15.30;99.90
15133;DHT22;7667;51.232;17.110;2023-07-31T05:15:58;15.20;99.90
15133;DHT22;7667;51.232;17.110;2023-07-31T05:18:29;15.20;99.90
15133;DHT22;7667;51.232;17.110;2023-07-31T05:20:56;15.30;99.90
15133;DHT22;7667;51.232;17.110;2023-07-31T05:23:24;15.20;99.90
15133;DHT22;7667;51.232;17.110;2023-07-31T05:25:51;15.30;99.90
15133;DHT22;7667;51.232;17.110;2023-07-31T05:28:22;15.40;99.90
15133;DHT22;7667;51.232;17.110;2023-07-31T05:30:49;15.60;99.90
15133;DHT22;7667;51.232;17.110;2023-07-31T05:33:17;15.80;99.90
15133;DHT22;7667;51.232;17.110;2023-07-31T05:35:44;16.00;99.90
15133;DHT22;7667;51.232;17.110;2023-07-31T05:38:12;16.10;99.90
15133;DHT22;7667;51.232;17.110;2023-07-31T05:40:39;16.00;99.90
15133;DHT22;7667;51.232;17.110;2023-07-31T05:43:07;16.00;99.90
15133;DHT22;7667;51.232;17.110;2023-07-31T05:45:35;16.10;99.90
15133;DHT22;7667;51.232;17.110;2023-07-31T05:48:04;16.10;99.90
15133;DHT22;7667;51.232;17.110;2023-07-31T05:50:31;16.00;99.90
15133;DHT22;7667;51.232;17.110;2023-07-31T05:52:59;16.10;99.90
15133;DHT22;7667;51.232;17.110;2023-07-31T05:55:27;16.20;99.90
15133;DHT22;7667;51.232;17.110;2023-07-31T05:57:54;16.30;99.90
15133;DHT22;7667;51.232;17.110;2023-07-31T06:00:24;16.30;99.90
15133;DHT22;7667;51.232;17.110;2023-07-31T06:02:51;16.30;99.90
15133;DHT22;7667;51.232;17.110;2023-07-31T06:05:19;16.40;99.90
15133;DHT22;7667;51.232;17.110;2023-07-31T06:07:47;16.50;99.90
15133;DHT22;7667;51.232;17.110;2023-07-31T06:10:15;16.60;99.90
15133;DHT22;7667;51.232;17.110;2023-07-31T06:12:42;16.80;99.90
15133;DHT22;7667;51.232;17.110;2023-07-31T06:15:10;17.00;99.90
15133;DHT22;7667;51.232;17.110;2023-07-31T06:17:38;17.30;99.90
15133;DHT22;7667;51.232;17.110;2023-07-31T06:20:06;17.50;99.90
15133;DHT22;7667;51.232;17.110;2023-07-31T06:22:34;17.50;99.90
15133;DHT22;7667;51.232;17.110;2023-07-31T06:25:02;17.40;99.90
15133;DHT22;7667;51.232;17.110;2023-07-31T06:27:30;17.40;99.90
15133;DHT22;7667;51.232;17.110;2023-07-31T06:29:57;17.50;99.90
15133;DHT22;7667;51.232;17.110;2023-07-31T06:32:25;17.50;99.90
15133;DHT22;7667;51.232;17.110;2023-07-31T06:34:52;17.70;99.90
15133;DHT22;7667;51.232;17.110;2023-07-31T06:37:21;17.80;99.90
15133;DHT22;7667;51.232;17.110;2023-07-31T06:39:48;17.90;99.90
15133;DHT22;7667;51.232;17.110;2023-07-31T06:42:16;18.00;99.90
15133;DHT22;7667;51.232;17.110;2023-07-31T06:44:44;18.00;99.90
15133;DHT22;7667;51.232;17.110;2023-07-31T06:47:12;18.00;99.90
15133;DHT22;7667;51.232;17.110;2023-07-31T06:49:39;18.10;99.90
15133;DHT22;7667;51.232;17.110;2023-07-31T06:52:07;18.30;99.90
15133;DHT22;7667;51.232;17.110;2023-07-31T06:54:34;18.30;99.90
15133;DHT22;7667;51.232;17.110;2023-07-31T06:57:02;18.50;99.90
15133;DHT22;7667;51.232;17.110;2023-07-31T06:59:30;18.40;99.90
15133;DHT22;7667;51.232;17.110;2023-07-31T07:01:58;18.30;99.90
15133;DHT22;7667;51.232;17.110;2023-07-31T07:04:25;18.40;99.90
15133;DHT22;7667;51.232;17.110;2023-07-31T07:06:53;18.60;99.90
15133;DHT22;7667;51.232;17.110;2023-07-31T07:09:21;18.80;99.90
15133;DHT22;7667;51.232;17.110;2023-07-31T07:11:48;18.90;99.90
15133;DHT22;7667;51.232;17.110;2023-07-31T07:14:16;19.10;99.90
15133;DHT22;7667;51.232;17.110;2023-07-31T07:16:44;19.20;99.90
15133;DHT22;7667;51.232;17.110;2023-07-31T07:19:11;19.20;99.90
15133;DHT22;7667;51.232;17.110;2023-07-31T07:21:39;19.20;99.90
15133;DHT22;7667;51.232;17.110;2023-07-31T07:24:06;18.80;99.90
15133;DHT22;7667;51.232;17.110;2023-07-31T07:26:34;18.60;99.90
15133;DHT22;7667;51.232;17.110;2023-07-31T07:29:01;18.70;99.90
15133;DHT22;7667;51.232;17.110;2023-07-31T07:31:29;18.90;99.90
15133;DHT22;7667;51.232;17.110;2023-07-31T07:33:57;18.90;99.90
15133;DHT22;7667;51.232;17.110;2023-07-31T07:36:24;19.00;99.90
15133;DHT22;7667;51.232;17.110;2023-07-31T07:38:52;19.20;99.90
15133;DHT22;7667;51.232;17.110;2023-07-31T07:41:19;19.20;99.90
15133;DHT22;7667;51.232;17.110;2023-07-31T07:43:47;19.30;99.90
15133;DHT22;7667;51.232;17.110;2023-07-31T07:46:14;19.40;99.90
15133;DHT22;7667;51.232;17.110;2023-07-31T07:48:42;19.40;99.90
15133;DHT22;7667;51.232;17.110;2023-07-31T07:51:10;19.50;99.90
15133;DHT22;7667;51.232;17.110;2023-07-31T07:53:37;19.80;99.90
15133;DHT22;7667;51.232;17.110;2023-07-31T07:56:05;19.90;99.90
15133;DHT22;7667;51.232;17.110;2023-07-31T07:58:32;20.30;99.90
15133;DHT22;7667;51.232;17.110;2023-07-31T08:01:00;20.50;99.90
15133;DHT22;7667;51.232;17.110;2023-07-31T08:03:27;21.00;99.90
15133;DHT22;7667;51.232;17.110;2023-07-31T08:06:01;20.80;99.90
15133;DHT22;7667;51.232;17.110;2023-07-31T08:08:29;20.50;99.90
15133;DHT22;7667;51.232;17.110;2023-07-31T08:10:56;20.80;99.90
15133;DHT22;7667;51.232;17.110;2023-07-31T08:13:24;20.90;99.90
15133;DHT22;7667;51.232;17.110;2023-07-31T08:15:51;20.60;99.90
15133;DHT22;7667;51.232;17.110;2023-07-31T08:18:19;20.80;99.90
15133;DHT22;7667;51.232;17.110;2023-07-31T08:20:47;20.80;99.90
15133;DHT22;7667;51.232;17.110;2023-07-31T08:23:15;20.50;99.90
15133;DHT22;7667;51.232;17.110;2023-07-31T08:25:42;20.50;99.90
15133;DHT22;7667;51.232;17.110;2023-07-31T08:28:10;20.60;99.90
15133;DHT22;7667;51.232;17.110;2023-07-31T08:30:37;20.80;99.90
15133;DHT22;7667;51.232;17.110;2023-07-31T08:33:05;20.90;99.90
15133;DHT22;7667;51.232;17.110;2023-07-31T08:35:32;21.20;99.90
15133;DHT22;7667;51.232;17.110;2023-07-31T08:38:00;21.30;99.90
15133;DHT22;7667;51.232;17.110;2023-07-31T08:40:28;21.40;99.90
15133;DHT22;7667;51.232;17.110;2023-07-31T08:42:56;21.00;99.90
15133;DHT22;7667;51.232;17.110;2023-07-31T08:45:26;20.90;99.90
15133;DHT22;7667;51.232;17.110;2023-07-31T08:47:54;21.10;99.90
15133;DHT22;7667;51.232;17.110;2023-07-31T08:50:23;20.80;99.90
15133;DHT22;7667;51.232;17.110;2023-07-31T08:52:52;20.40;99.90
15133;DHT22;7667;51.232;17.110;2023-07-31T08:55:22;19.60;99.90
15133;DHT22;7667;51.232;17.110;2023-07-31T08:57:52;19.30;99.90
15133;DHT22;7667;51.232;17.110;2023-07-31T09:00:23;19.20;99.90
15133;DHT22;7667;51.232;17.110;2023-07-31T09:03:02;19.00;99.90
15133;DHT22;7667;51.232;17.110;2023-07-31T09:05:31;18.90;99.90
15133;DHT22;7667;51.232;17.110;2023-07-31T09:08:00;18.80;99.90
15133;DHT22;7667;51.232;17.110;2023-07-31T09:10:30;18.80;99.90
15133;DHT22;7667;51.232;17.110;2023-07-31T09:12:57;18.80;99.90
15133;DHT22;7667;51.232;17.110;2023-07-31T09:15:25;18.90;99.90
15133;DHT22;7667;51.232;17.110;2023-07-31T09:18:05;18.90;99.90
15133;DHT22;7667;51.232;17.110;2023-07-31T09:20:36;18.80;99.90
15133;DHT22;7667;51.232;17.110;2023-07-31T09:23:13;18.70;99.90
15133;DHT22;7667;51.232;17.110;2023-07-31T09:25:44;18.80;99.90
15133;DHT22;7667;51.232;17.110;2023-07-31T09:28:12;18.80;99.90
15133;DHT22;7667;51.232;17.110;2023-07-31T09:30:58;18.80;99.90
15133;DHT22;7667;51.232;17.110;2023-07-31T09:33:25;18.80;99.90
15133;DHT22;7667;51.232;17.110;2023-07-31T09:35:53;18.90;99.90
15133;DHT22;7667;51.232;17.110;2023-07-31T09:38:20;19.00;99.90
15133;DHT22;7667;51.232;17.110;2023-07-31T09:40:49;18.90;99.90
15133;DHT22;7667;51.232;17.110;2023-07-31T09:43:20;18.90;99.90
15133;DHT22;7667;51.232;17.110;2023-07-31T09:45:55;18.80;99.90
15133;DHT22;7667;51.232;17.110;2023-07-31T09:48:24;18.70;99.90
15133;DHT22;7667;51.232;17.110;2023-07-31T09:50:55;18.70;99.90
15133;DHT22;7667;51.232;17.110;2023-07-31T09:53:28;18.70;99.90
15133;DHT22;7667;51.232;17.110;2023-07-31T09:55:59;18.80;99.90
15133;DHT22;7667;51.232;17.110;2023-07-31T09:58:29;18.80;99.90
15133;DHT22;7667;51.232;17.110;2023-07-31T10:01:00;18.80;99.90
15133;DHT22;7667;51.232;17.110;2023-07-31T10:03:29;18.90;99.90
15133;DHT22;7667;51.232;17.110;2023-07-31T10:06:00;18.90;99.90
15133;DHT22;7667;51.232;17.110;2023-07-31T10:08:30;19.10;99.90
15133;DHT22;7667;51.232;17.110;2023-07-31T10:11:00;19.20;99.90
15133;DHT22;7667;51.232;17.110;2023-07-31T10:13:30;19.30;99.90
15133;DHT22;7667;51.232;17.110;2023-07-31T10:15:59;19.30;99.90
15133;DHT22;7667;51.232;17.110;2023-07-31T10:18:30;19.30;99.90
15133;DHT22;7667;51.232;17.110;2023-07-31T10:20:58;19.10;99.90
15133;DHT22;7667;51.232;17.110;2023-07-31T10:23:26;18.80;99.90
15133;DHT22;7667;51.232;17.110;2023-07-31T10:25:57;18.40;99.90
15133;DHT22;7667;51.232;17.110;2023-07-31T10:28:26;18.10;99.90
15133;DHT22;7667;51.232;17.110;2023-07-31T10:30:54;17.90;99.90
15133;DHT22;7667;51.232;17.110;2023-07-31T10:33:22;17.80;99.90
15133;DHT22;7667;51.232;17.110;2023-07-31T10:35:50;18.00;99.90
15133;DHT22;7667;51.232;17.110;2023-07-31T10:38:23;18.30;99.90
15133;DHT22;7667;51.232;17.110;2023-07-31T10:40:51;18.70;99.90
15133;DHT22;7667;51.232;17.110;2023-07-31T10:43:25;18.90;99.90
15133;DHT22;7667;51.232;17.110;2023-07-31T10:45:54;18.90;99.90
15133;DHT22;7667;51.232;17.110;2023-07-31T10:48:22;18.80;99.90
15133;DHT22;7667;51.232;17.110;2023-07-31T10:50:54;19.00;99.90
15133;DHT22;7667;51.232;17.110;2023-07-31T10:53:31;19.60;99.90
15133;DHT22;7667;51.232;17.110;2023-07-31T10:56:08;19.60;99.90
15133;DHT22;7667;51.232;17.110;2023-07-31T10:58:39;19.50;99.90
15133;DHT22;7667;51.232;17.110;2023-07-31T11:01:11;19.60;99.90
15133;DHT22;7667;51.232;17.110;2023-07-31T11:03:48;19.80;99.90
15133;DHT22;7667;51.232;17.110;2023-07-31T11:06:19;19.80;99.90
15133;DHT22;7667;51.232;17.110;2023-07-31T11:08:50;19.60;99.90
15133;DHT22;7667;51.232;17.110;2023-07-31T11:11:19;19.50;99.90
15133;DHT22;7667;51.232;17.110;2023-07-31T11:13:52;19.40;99.90
15133;DHT22;7667;51.232;17.110;2023-07-31T11:16:24;19.50;99.90
15133;DHT22;7667;51.232;17.110;2023-07-31T11:18:54;19.30;99.90
15133;DHT22;7667;51.232;17.110;2023-07-31T11:21:24;19.30;99.90
15133;DHT22;7667;51.232;17.110;2023-07-31T11:23:56;19.60;99.90
15133;DHT22;7667;51.232;17.110;2023-07-31T11:26:27;20.00;99.90
15133;DHT22;7667;51.232;17.110;2023-07-31T11:28:58;20.30;99.90
15133;DHT22;7667;51.232;17.110;2023-07-31T11:31:25;20.70;99.90
15133;DHT22;7667;51.232;17.110;2023-07-31T11:34:14;20.90;99.90
15133;DHT22;7667;51.232;17.110;2023-07-31T11:36:55;21.10;99.90
15133;DHT22;7667;51.232;17.110;2023-07-31T11:39:23;21.00;99.90
15133;DHT22;7667;51.232;17.110;2023-07-31T11:41:50;21.60;99.90
15133;DHT22;7667;51.232;17.110;2023-07-31T11:44:18;21.80;99.90
15133;DHT22;7667;51.232;17.110;2023-07-31T11:46:57;21.90;99.90
15133;DHT22;7667;51.232;17.110;2023-07-31T11:49:25;22.20;99.90
15133;DHT22;7667;51.232;17.110;2023-07-31T11:51:53;22.30;99.90
15133;DHT22;7667;51.232;17.110;2023-07-31T11:54:21;22.00;99.90
15133;DHT22;7667;51.232;17.110;2023-07-31T11:56:49;22.70;99.90
15133;DHT22;7667;51.232;17.110;2023-07-31T11:59:17;23.80;99.90
15133;DHT22;7667;51.232;17.110;2023-07-31T12:01:45;23.90;99.90
15133;DHT22;7667;51.232;17.110;2023-07-31T12:04:13;24.40;99.90
15133;DHT22;7667;51.232;17.110;2023-07-31T12:06:41;23.70;99.90
15133;DHT22;7667;51.232;17.110;2023-07-31T12:09:09;23.00;99.90
15133;DHT22;7667;51.232;17.110;2023-07-31T12:11:44;22.10;99.90
15133;DHT22;7667;51.232;17.110;2023-07-31T12:14:26;21.70;99.90
15133;DHT22;7667;51.232;17.110;2023-07-31T12:17:04;21.30;99.90
15133;DHT22;7667;51.232;17.110;2023-07-31T12:19:32;21.40;99.90
15133;DHT22;7667;51.232;17.110;2023-07-31T12:22:00;21.30;99.90
15133;DHT22;7667;51.232;17.110;2023-07-31T12:24:27;21.40;99.90
15133;DHT22;7667;51.232;17.110;2023-07-31T12:26:55;21.20;99.90
15133;DHT22;7667;51.232;17.110;2023-07-31T12:29:23;21.20;99.90
15133;DHT22;7667;51.232;17.110;2023-07-31T12:31:50;21.00;99.90
15133;DHT22;7667;51.232;17.110;2023-07-31T12:34:19;20.80;99.90
15133;DHT22;7667;51.232;17.110;2023-07-31T12:36:53;21.00;99.90
15133;DHT22;7667;51.232;17.110;2023-07-31T12:39:21;21.00;99.90
15133;DHT22;7667;51.232;17.110;2023-07-31T12:41:48;21.40;99.90
15133;DHT22;7667;51.232;17.110;2023-07-31T12:44:16;21.90;99.90
15133;DHT22;7667;51.232;17.110;2023-07-31T12:46:43;22.20;99.90
15133;DHT22;7667;51.232;17.110;2023-07-31T12:49:11;23.10;99.90
15133;DHT22;7667;51.232;17.110;2023-07-31T12:51:39;22.40;99.90
15133;DHT22;7667;51.232;17.110;2023-07-31T12:54:06;21.80;99.90
15133;DHT22;7667;51.232;17.110;2023-07-31T12:56:34;21.70;99.90
15133;DHT22;7667;51.232;17.110;2023-07-31T12:59:02;22.20;99.90
15133;DHT22;7667;51.232;17.110;2023-07-31T13:01:29;22.20;99.90
15133;DHT22;7667;51.232;17.110;2023-07-31T13:03:57;21.80;99.90
15133;DHT22;7667;51.232;17.110;2023-07-31T13:06:27;21.50;99.90
15133;DHT22;7667;51.232;17.110;2023-07-31T13:08:55;21.30;99.90
15133;DHT22;7667;51.232;17.110;2023-07-31T13:11:23;21.20;99.90
15133;DHT22;7667;51.232;17.110;2023-07-31T13:13:50;21.70;99.90
15133;DHT22;7667;51.232;17.110;2023-07-31T13:16:18;22.10;99.90
15133;DHT22;7667;51.232;17.110;2023-07-31T13:18:45;22.50;99.90
15133;DHT22;7667;51.232;17.110;2023-07-31T13:21:13;22.20;99.90
15133;DHT22;7667;51.232;17.110;2023-07-31T13:23:41;22.30;99.90
15133;DHT22;7667;51.232;17.110;2023-07-31T13:26:08;22.40;99.90
15133;DHT22;7667;51.232;17.110;2023-07-31T13:28:36;22.60;99.90
15133;DHT22;7667;51.232;17.110;2023-07-31T13:31:04;22.70;99.90
15133;DHT22;7667;51.232;17.110;2023-07-31T13:33:31;22.50;99.90
15133;DHT22;7667;51.232;17.110;2023-07-31T13:36:04;23.60;99.90
15133;DHT22;7667;51.232;17.110;2023-07-31T13:38:32;24.60;99.90
15133;DHT22;7667;51.232;17.110;2023-07-31T13:41:00;25.30;99.90
15133;DHT22;7667;51.232;17.110;2023-07-31T13:43:27;24.60;99.90
15133;DHT22;7667;51.232;17.110;2023-07-31T13:45:55;23.60;99.90
15133;DHT22;7667;51.232;17.110;2023-07-31T13:48:22;23.20;99.90
15133;DHT22;7667;51.232;17.110;2023-07-31T13:50:50;22.80;99.90
15133;DHT22;7667;51.232;17.110;2023-07-31T13:53:17;22.40;99.90
15133;DHT22;7667;51.232;17.110;2023-07-31T13:55:45;22.00;99.90
15133;DHT22;7667;51.232;17.110;2023-07-31T13:58:12;21.80;99.90
15133;DHT22;7667;51.232;17.110;2023-07-31T14:00:40;21.90;99.90
15133;DHT22;7667;51.232;17.110;2023-07-31T14:03:08;21.90;99.90
15133;DHT22;7667;51.232;17.110;2023-07-31T14:05:35;21.80;99.90
15133;DHT22;7667;51.232;17.110;2023-07-31T14:08:04;21.90;99.90
15133;DHT22;7667;51.232;17.110;2023-07-31T14:10:32;22.20;99.90
15133;DHT22;7667;51.232;17.110;2023-07-31T14:12:59;22.90;99.90
15133;DHT22;7667;51.232;17.110;2023-07-31T14:15:27;23.50;99.90
15133;DHT22;7667;51.232;17.110;2023-07-31T14:17:55;23.50;99.90
15133;DHT22;7667;51.232;17.110;2023-07-31T14:20:28;23.50;99.90
15133;DHT22;7667;51.232;17.110;2023-07-31T14:22:56;22.80;99.90
15133;DHT22;7667;51.232;17.110;2023-07-31T14:25:23;22.60;99.90
15133;DHT22;7667;51.232;17.110;2023-07-31T14:27:51;22.70;99.90
15133;DHT22;7667;51.232;17.110;2023-07-31T14:30:18;22.70;99.90
15133;DHT22;7667;51.232;17.110;2023-07-31T14:32:46;22.50;99.90
15133;DHT22;7667;51.232;17.110;2023-07-31T14:35:14;22.10;99.90
15133;DHT22;7667;51.232;17.110;2023-07-31T14:37:44;22.00;99.90
15133;DHT22;7667;51.232;17.110;2023-07-31T14:40:13;22.00;99.90
15133;DHT22;7667;51.232;17.110;2023-07-31T14:42:40;22.20;99.90
15133;DHT22;7667;51.232;17.110;2023-07-31T14:45:08;22.50;99.90
15133;DHT22;7667;51.232;17.110;2023-07-31T14:47:37;23.10;99.90
15133;DHT22;7667;51.232;17.110;2023-07-31T14:50:05;23.70;99.90
15133;DHT22;7667;51.232;17.110;2023-07-31T14:52:33;23.80;99.90
15133;DHT22;7667;51.232;17.110;2023-07-31T14:55:01;23.40;99.90
15133;DHT22;7667;51.232;17.110;2023-07-31T14:57:28;23.10;99.90
15133;DHT22;7667;51.232;17.110;2023-07-31T14:59:56;23.30;99.90
15133;DHT22;7667;51.232;17.110;2023-07-31T15:02:25;23.60;99.90
15133;DHT22;7667;51.232;17.110;2023-07-31T15:04:54;23.60;99.90
15133;DHT22;7667;51.232;17.110;2023-07-31T15:07:22;23.60;99.90
15133;DHT22;7667;51.232;17.110;2023-07-31T15:09:49;23.60;99.90
15133;DHT22;7667;51.232;17.110;2023-07-31T15:12:17;23.90;99.90
15133;DHT22;7667;51.232;17.110;2023-07-31T15:14:45;24.20;99.90
15133;DHT22;7667;51.232;17.110;2023-07-31T15:17:13;24.10;99.90
15133;DHT22;7667;51.232;17.110;2023-07-31T15:19:40;24.10;99.90
15133;DHT22;7667;51.232;17.110;2023-07-31T15:22:08;24.10;99.90
15133;DHT22;7667;51.232;17.110;2023-07-31T15:24:35;24.70;99.90
15133;DHT22;7667;51.232;17.110;2023-07-31T15:27:03;25.00;99.90
15133;DHT22;7667;51.232;17.110;2023-07-31T15:29:31;24.30;99.90
15133;DHT22;7667;51.232;17.110;2023-07-31T15:31:59;23.80;99.90
15133;DHT22;7667;51.232;17.110;2023-07-31T15:34:27;23.50;99.90
15133;DHT22;7667;51.232;17.110;2023-07-31T15:36:54;23.80;99.90
15133;DHT22;7667;51.232;17.110;2023-07-31T15:39:22;24.20;99.90
15133;DHT22;7667;51.232;17.110;2023-07-31T15:41:50;25.10;99.90
15133;DHT22;7667;51.232;17.110;2023-07-31T15:44:17;25.30;99.90